createdAt,value
2022-10-25T00:00:14.337Z,98189.84
2022-10-25T00:03:20.049Z,98185.63
2022-10-25T00:06:26.840Z,98183.34
2022-10-25T00:09:32.758Z,98176.00
2022-10-25T00:12:45.627Z,98183.28
2022-10-25T00:15:53.991Z,98180.22
2022-10-25T00:19:00.513Z,98190.38
2022-10-25T00:22:07.599Z,98194.19
2022-10-25T00:25:14.452Z,98197.13
2022-10-25T00:28:20.028Z,98202.91
2022-10-25T00:31:29.271Z,98204.09
2022-10-25T00:34:35.183Z,98204.19
2022-10-25T00:37:41.962Z,98198.94
2022-10-25T00:40:47.608Z,98205.88
2022-10-25T00:43:56.491Z,98201.47
2022-10-25T00:47:06.587Z,98192.28
2022-10-25T00:50:20.098Z,98204.09
2022-10-25T00:53:35.692Z,98206.09
2022-10-25T00:56:45.926Z,98201.16
2022-10-25T00:59:52.619Z,98199.91
2022-10-25T01:03:03.642Z,98194.88
2022-10-25T01:06:14.167Z,98195.06
2022-10-25T01:09:24.769Z,98188.09
2022-10-25T01:12:30.495Z,98181.19
2022-10-25T01:15:49.048Z,98183.06
2022-10-25T01:19:08.362Z,98175.59
2022-10-25T01:22:18.998Z,98176.66
2022-10-25T01:25:42.904Z,98186.34
2022-10-25T01:29:08.806Z,98183.91
2022-10-25T01:32:22.559Z,98188.78
2022-10-25T01:35:32.767Z,98190.97
2022-10-25T01:38:50.932Z,98191.31
2022-10-25T01:42:04.037Z,98185.41
2022-10-25T01:45:16.145Z,98196.13
2022-10-25T01:48:28.042Z,98184.34
2022-10-25T01:51:34.642Z,98193.63
2022-10-25T01:54:40.490Z,98199.06
2022-10-25T01:58:03.494Z,98188.75
2022-10-25T02:01:29.187Z,98182.97
2022-10-25T02:04:47.212Z,98186.66
2022-10-25T02:08:03.873Z,98187.69
2022-10-25T02:11:20.146Z,98187.91
2022-10-25T02:14:31.806Z,98191.69
2022-10-25T02:17:44.265Z,98187.28
2022-10-25T02:20:56.008Z,98187.38
2022-10-25T02:24:08.631Z,98186.50
2022-10-25T02:27:16.516Z,98184.00
2022-10-25T02:30:23.616Z,98194.63
2022-10-25T02:33:30.071Z,98195.69
2022-10-25T02:36:39.897Z,98187.00
2022-10-25T02:39:47.491Z,98181.97
2022-10-25T02:42:54.050Z,98179.22
2022-10-25T02:45:59.642Z,98183.84
2022-10-25T02:49:07.154Z,98184.03
2022-10-25T02:52:15.874Z,98179.75
2022-10-25T02:55:22.461Z,98181.72
2022-10-25T02:58:28.086Z,98183.81
2022-10-25T03:01:34.617Z,98185.06
2022-10-25T03:04:40.340Z,98189.69
2022-10-25T03:07:49.551Z,98197.84
2022-10-25T03:10:55.693Z,98195.44
2022-10-25T03:14:03.309Z,98198.25
2022-10-25T03:17:09.432Z,98192.34
2022-10-25T03:20:16.438Z,98191.69
2022-10-25T03:23:24.756Z,98192.66
2022-10-25T03:26:31.539Z,98195.47
2022-10-25T03:29:37.186Z,98195.66
2022-10-25T03:32:43.633Z,98206.19
2022-10-25T03:35:52.879Z,98210.59
2022-10-25T03:39:04.453Z,98209.78
2022-10-25T03:42:11.327Z,98207.22
2022-10-25T03:45:17.993Z,98216.88
2022-10-25T03:48:23.652Z,98215.22
2022-10-25T03:51:30.137Z,98218.78
2022-10-25T03:54:38.556Z,98221.03
2022-10-25T03:57:45.391Z,98220.28
2022-10-25T04:00:51.259Z,98216.88
2022-10-25T04:03:57.804Z,98220.16
2022-10-25T04:07:03.667Z,98216.50
2022-10-25T04:10:13.583Z,98216.31
2022-10-25T04:13:19.278Z,98221.38
2022-10-25T04:16:26.934Z,98217.59
2022-10-25T04:19:32.627Z,98220.97
2022-10-25T04:22:39.245Z,98217.59
2022-10-25T04:25:47.961Z,98213.31
2022-10-25T04:28:56.678Z,98226.22
2022-10-25T04:32:03.278Z,98222.66
2022-10-25T04:35:10.615Z,98215.50
2022-10-25T04:38:16.255Z,98220.56
2022-10-25T04:41:25.818Z,98212.69
2022-10-25T04:44:31.562Z,98208.16
2022-10-25T04:47:38.435Z,98204.59
2022-10-25T04:50:44.137Z,98207.97
2022-10-25T04:53:50.862Z,98209.66
2022-10-25T04:56:59.592Z,98213.03
2022-10-25T05:00:07.782Z,98216.59
2022-10-25T05:03:13.514Z,98218.09
2022-10-25T05:06:22.882Z,98214.31
2022-10-25T05:09:28.762Z,98219.56
2022-10-25T05:12:38.477Z,98221.06
2022-10-25T05:15:44.162Z,98222.94
2022-10-25T05:18:51.359Z,98226.94
2022-10-25T05:21:56.968Z,98218.97
2022-10-25T05:25:03.612Z,98217.19
2022-10-25T05:28:12.309Z,98222.16
2022-10-25T05:31:20.851Z,98229.63
2022-10-25T05:34:27.561Z,98227.84
2022-10-25T05:37:34.120Z,98230.19
2022-10-25T05:40:39.885Z,98223.78
2022-10-25T05:43:49.897Z,98229.59
2022-10-25T05:46:56.059Z,98235.03
2022-10-25T05:50:03.325Z,98244.94
2022-10-25T05:53:09.259Z,98251.03
2022-10-25T05:56:17.227Z,98259.44
2022-10-25T05:59:25.930Z,98263.47
2022-10-25T06:02:32.500Z,98275.28
2022-10-25T06:05:38.618Z,98275.06
2022-10-25T06:08:45.164Z,98266.88
2022-10-25T06:11:50.886Z,98271.91
2022-10-25T06:15:00.187Z,98277.81
2022-10-25T06:18:07.743Z,98269.81
2022-10-25T06:21:16.222Z,98268.88
2022-10-25T06:24:21.861Z,98270.06
2022-10-25T06:27:28.477Z,98275.72
2022-10-25T06:30:37.917Z,98277.22
2022-10-25T06:33:45.554Z,98275.34
2022-10-25T06:36:51.188Z,98288.63
2022-10-25T06:39:57.680Z,98294.50
2022-10-25T06:43:03.694Z,98299.69
2022-10-25T06:46:16.206Z,98309.25
2022-10-25T06:49:21.816Z,98309.25
2022-10-25T06:52:28.674Z,98314.72
2022-10-25T06:55:34.656Z,98306.94
2022-10-25T06:58:42.059Z,98318.09
2022-10-25T07:01:50.766Z,98317.78
2022-10-25T07:04:57.594Z,98328.72
2022-10-25T07:08:03.747Z,98334.31
2022-10-25T07:11:15.808Z,98325.63
2022-10-25T07:14:21.421Z,98320.69
2022-10-25T07:17:30.771Z,98310.97
2022-10-25T07:20:39.345Z,98323.06
2022-10-25T07:23:46.939Z,98328.94
2022-10-25T07:26:52.645Z,98332.22
2022-10-25T07:29:59.133Z,98326.31
2022-10-25T07:33:07.561Z,98323.06
2022-10-25T07:36:14.242Z,98322.59
2022-10-25T07:39:19.883Z,98325.00
2022-10-25T07:42:26.419Z,98324.91
2022-10-25T07:45:32.124Z,98315.50
2022-10-25T07:48:41.940Z,98323.63
2022-10-25T07:51:47.867Z,98319.13
2022-10-25T07:54:54.378Z,98322.69
2022-10-25T07:58:03.467Z,98329.69
2022-10-25T08:01:19.948Z,98337.72
2022-10-25T08:07:43.588Z,98362.59
2022-10-25T08:10:54.876Z,98362.47
2022-10-25T08:14:03.559Z,98360.84
2022-10-25T08:17:09.881Z,98361.69
2022-10-25T08:20:19.560Z,98371.03
2022-10-25T08:23:25.485Z,98353.81
2022-10-25T08:26:36.601Z,98359.72
2022-10-25T08:29:43.315Z,98354.09
2022-10-25T08:32:49.807Z,98348.31
2022-10-25T08:35:58.161Z,98355.66
2022-10-25T08:39:06.569Z,98364.47
2022-10-25T08:42:23.302Z,98363.63
2022-10-25T08:45:35.658Z,98359.63
2022-10-25T08:48:48.443Z,98352.88
2022-10-25T08:51:59.479Z,98354.38
2022-10-25T08:55:13.078Z,98356.94
2022-10-25T08:58:27.245Z,98356.34
2022-10-25T09:01:46.735Z,98354.03
2022-10-25T09:04:53.388Z,98359.28
2022-10-25T09:08:11.719Z,98359.56
2022-10-25T09:11:29.075Z,98353.47
2022-10-25T09:14:47.309Z,98358.53
2022-10-25T09:17:55.338Z,98350.34
2022-10-25T09:21:11.548Z,98354.41
2022-10-25T09:24:31.390Z,98348.28
2022-10-25T09:27:39.046Z,98354.59
2022-10-25T09:30:47.419Z,98347.84
2022-10-25T09:34:00.119Z,98353.72
2022-10-25T09:37:17.057Z,98360.28
2022-10-25T09:40:28.475Z,98354.16
2022-10-25T09:43:41.557Z,98351.41
2022-10-25T09:46:50.394Z,98355.09
2022-10-25T09:50:03.372Z,98350.88
2022-10-25T09:53:16.459Z,98350.13
2022-10-25T09:56:28.253Z,98353.09
2022-10-25T09:59:33.966Z,98351.28
2022-10-25T10:02:40.605Z,98359.00
2022-10-25T10:05:52.095Z,98365.72
2022-10-25T10:09:03.794Z,98359.41
2022-10-25T10:12:21.462Z,98363.63
2022-10-25T10:15:31.538Z,98364.78
2022-10-25T10:18:37.813Z,98376.38
2022-10-25T10:21:45.988Z,98373.31
2022-10-25T10:25:03.520Z,98370.22
2022-10-25T10:28:17.986Z,98371.25
2022-10-25T10:31:24.128Z,98368.19
2022-10-25T10:34:35.171Z,98370.41
2022-10-25T10:37:43.257Z,98371.66
2022-10-25T10:40:51.649Z,98368.38
2022-10-25T10:44:17.088Z,98362.97
2022-10-25T10:47:24.904Z,98362.94
2022-10-25T10:50:35.435Z,98365.31
2022-10-25T10:53:42.020Z,98366.13
2022-10-25T10:56:59.743Z,98365.78
2022-10-25T11:00:24.685Z,98361.72
2022-10-25T11:03:59.963Z,98364.03
2022-10-25T11:07:17.149Z,98364.44
2022-10-25T11:10:29.071Z,98360.59
2022-10-25T11:13:38.917Z,98360.16
2022-10-25T11:17:03.261Z,98355.50
2022-10-25T11:20:26.266Z,98357.56
2022-10-25T11:23:43.220Z,98357.00
2022-10-25T11:26:58.751Z,98361.72
2022-10-25T11:30:17.203Z,98360.97
2022-10-25T11:33:37.240Z,98354.13
2022-10-25T11:36:57.873Z,98348.97
2022-10-25T11:40:12.961Z,98341.63
2022-10-25T11:43:37.425Z,98348.34
2022-10-25T11:46:53.181Z,98356.97
2022-10-25T11:50:17.436Z,98354.09
2022-10-25T11:53:32.715Z,98352.63
2022-10-25T11:56:49.780Z,98356.97
2022-10-25T12:00:07.020Z,98357.13
2022-10-25T12:03:25.799Z,98356.50
2022-10-25T12:06:40.822Z,98353.38
2022-10-25T12:09:59.265Z,98353.63
2022-10-25T12:13:14.478Z,98362.88
2022-10-25T12:16:23.182Z,98361.28
2022-10-25T12:19:33.429Z,98360.06
2022-10-25T12:22:46.940Z,98357.81
2022-10-25T12:25:56.196Z,98355.28
2022-10-25T12:29:06.948Z,98351.22
2022-10-25T12:32:18.626Z,98356.03
2022-10-25T12:35:29.733Z,98347.63
2022-10-25T12:38:40.872Z,98348.34
2022-10-25T12:41:50.214Z,98345.97
2022-10-25T12:45:25.112Z,98344.03
2022-10-25T12:49:03.555Z,98345.25
2022-10-25T12:52:26.588Z,98345.34
2022-10-25T12:55:45.561Z,98344.25
2022-10-25T12:59:06.655Z,98350.16
2022-10-25T13:02:23.979Z,98342.13
2022-10-25T13:06:03.518Z,98336.56
2022-10-25T13:09:12.664Z,98345.09
2022-10-25T13:12:31.015Z,98340.19
2022-10-25T13:15:46.781Z,98355.34
2022-10-25T13:20:01.100Z,98343.56
2022-10-25T13:22:56.863Z,98345.97
2022-10-25T13:26:10.350Z,98355.25
2022-10-25T13:30:04.009Z,98352.63
2022-10-25T13:33:33.800Z,98363.03
2022-10-25T13:36:51.731Z,98357.38
2022-10-25T13:39:58.378Z,98361.47
2022-10-25T13:43:07.764Z,98367.69
2022-10-25T13:46:18.178Z,98372.25
2022-10-25T13:49:33.176Z,98365.06
2022-10-25T13:52:39.733Z,98370.34
2022-10-25T13:55:50.754Z,98368.19
2022-10-25T13:58:58.038Z,98370.47
2022-10-25T14:02:20.708Z,98380.72
2022-10-25T14:06:00.491Z,98372.81
2022-10-25T14:09:15.712Z,98380.56
2022-10-25T14:12:24.606Z,98379.63
2022-10-25T14:15:42.267Z,98382.50
2022-10-25T14:18:53.893Z,98389.00
2022-10-25T14:21:59.970Z,98388.00
2022-10-25T14:25:23.159Z,98384.69
2022-10-25T14:28:30.602Z,98385.66
2022-10-25T14:31:37.259Z,98382.75
2022-10-25T14:34:51.968Z,98378.53
2022-10-25T14:37:58.517Z,98379.69
2022-10-25T14:41:06.555Z,98393.75
2022-10-25T14:44:25.664Z,98389.56
2022-10-25T14:47:32.714Z,98389.19
2022-10-25T14:50:42.016Z,98386.84
2022-10-25T14:53:58.805Z,98397.78
2022-10-25T14:57:09.126Z,98405.31
2022-10-25T15:00:21.524Z,98394.25
2022-10-25T15:03:30.574Z,98410.84
2022-10-25T15:06:39.132Z,98403.84
2022-10-25T15:09:51.664Z,98402.69
2022-10-25T15:12:57.421Z,98407.47
2022-10-25T15:16:06.518Z,98409.59
2022-10-25T15:19:20.760Z,98415.31
2022-10-25T15:22:34.361Z,98419.16
2022-10-25T15:25:41.631Z,98421.25
2022-10-25T15:28:51.976Z,98418.88
2022-10-25T15:31:57.583Z,98417.38
2022-10-25T15:35:06.585Z,98407.91
2022-10-25T15:38:17.853Z,98422.16
2022-10-25T15:41:24.388Z,98415.44
2022-10-25T15:44:30.050Z,98421.09
2022-10-25T15:47:39.011Z,98427.56
2022-10-25T15:50:49.706Z,98427.06
2022-10-25T15:53:59.199Z,98431.06
2022-10-25T15:57:06.575Z,98435.09
2022-10-25T16:00:17.119Z,98441.44
2022-10-25T16:03:25.406Z,98432.03
2022-10-25T16:06:31.861Z,98443.75
2022-10-25T16:09:40.289Z,98436.91
2022-10-25T16:12:50.037Z,98443.56
2022-10-25T16:15:55.911Z,98443.78
2022-10-25T16:19:03.788Z,98439.66
2022-10-25T16:22:09.474Z,98440.72
2022-10-25T16:25:20.279Z,98435.75
2022-10-25T16:31:37.573Z,98438.28
2022-10-25T16:34:46.196Z,98445.66
2022-10-25T16:37:56.667Z,98453.03
2022-10-25T16:41:06.231Z,98452.44
2022-10-25T16:44:15.373Z,98453.69
2022-10-25T16:47:21.593Z,98466.34
2022-10-25T16:50:30.255Z,98464.00
2022-10-25T16:53:35.929Z,98466.94
2022-10-25T16:56:45.156Z,98472.28
2022-10-25T16:59:50.803Z,98469.00
2022-10-25T17:02:57.613Z,98472.38
2022-10-25T17:06:22.199Z,98485.53
2022-10-25T17:09:32.689Z,98475.97
2022-10-25T17:12:49.115Z,98478.59
2022-10-25T17:15:56.522Z,98481.56
2022-10-25T17:19:03.566Z,98488.81
2022-10-25T17:22:10.057Z,98496.25
2022-10-25T17:25:15.811Z,98503.72
2022-10-25T17:28:25.016Z,98503.06
2022-10-25T17:31:32.757Z,98513.16
2022-10-25T17:34:39.415Z,98501.34
2022-10-25T17:37:47.388Z,98496.28
2022-10-25T17:40:54.414Z,98503.44
2022-10-25T17:44:03.254Z,98503.44
2022-10-25T17:47:11.725Z,98508.47
2022-10-25T17:50:20.330Z,98510.19
2022-10-25T17:53:26.918Z,98513.56
2022-10-25T17:56:32.744Z,98513.56
2022-10-25T17:59:42.081Z,98516.31
2022-10-25T18:02:50.849Z,98520.91
2022-10-25T18:05:57.949Z,98521.94
2022-10-25T18:09:04.497Z,98516.88
2022-10-25T18:12:11.808Z,98523.19
2022-10-25T18:15:20.547Z,98520.00
2022-10-25T18:18:27.151Z,98522.09
2022-10-25T18:21:34.158Z,98522.28
2022-10-25T18:24:40.884Z,98524.34
2022-10-25T18:27:46.830Z,98519.19
2022-10-25T18:31:03.599Z,98521.72
2022-10-25T18:34:09.703Z,98520.97
2022-10-25T18:37:16.172Z,98531.88
2022-10-25T18:40:22.850Z,98532.63
2022-10-25T18:43:30.059Z,98532.41
2022-10-25T18:46:38.465Z,98536.84
2022-10-25T18:49:44.953Z,98538.63
2022-10-25T18:52:50.832Z,98534.38
2022-10-25T18:55:57.589Z,98534.59
2022-10-25T18:59:03.648Z,98534.69
2022-10-25T19:02:13.938Z,98527.53
2022-10-25T19:05:19.726Z,98534.69
2022-10-25T19:08:26.407Z,98543.72
2022-10-25T19:11:33.515Z,98540.53
2022-10-25T19:14:40.040Z,98546.19
2022-10-25T19:17:53.961Z,98546.38
2022-10-25T19:21:07.046Z,98552.84
2022-10-25T19:24:16.022Z,98539.13
2022-10-25T19:27:22.903Z,98549.03
2022-10-25T19:30:35.466Z,98549.22
2022-10-25T19:33:51.179Z,98547.50
2022-10-25T19:36:56.905Z,98550.25
2022-10-25T19:40:03.768Z,98545.91
2022-10-25T19:43:09.648Z,98546.00
2022-10-25T19:46:16.613Z,98545.06
2022-10-25T19:49:25.037Z,98538.88
2022-10-25T19:52:31.516Z,98540.94
2022-10-25T19:55:37.570Z,98544.84
2022-10-25T19:58:44.318Z,98548.59
2022-10-25T20:01:50.183Z,98556.78
2022-10-25T20:04:59.591Z,98549.16
2022-10-25T20:08:07.440Z,98551.22
2022-10-25T20:11:15.597Z,98554.03
2022-10-25T20:14:21.181Z,98552.63
2022-10-25T20:17:27.801Z,98554.66
2022-10-25T20:20:36.446Z,98561.81
2022-10-25T20:23:45.572Z,98560.00
2022-10-25T20:26:51.185Z,98565.19
2022-10-25T20:29:58.033Z,98572.13
2022-10-25T20:33:03.893Z,98579.25
2022-10-25T20:36:16.402Z,98577.06
2022-10-25T20:39:22.069Z,98578.94
2022-10-25T20:42:28.706Z,98568.44
2022-10-25T20:45:35.602Z,98568.44
2022-10-25T20:48:42.220Z,98568.44
2022-10-25T20:51:50.981Z,98573.69
2022-10-25T20:58:08.087Z,98572.16
2022-10-25T21:01:14.812Z,98578.38
2022-10-25T21:04:25.965Z,98576.22
2022-10-25T21:07:45.462Z,98579.81
2022-10-25T21:10:55.861Z,98578.78
2022-10-25T21:14:03.302Z,98580.22
2022-10-25T21:17:08.918Z,98582.63
2022-10-25T21:20:15.366Z,98576.56
2022-10-25T21:23:24.055Z,98578.00
2022-10-25T21:26:31.593Z,98579.13
2022-10-25T21:29:37.671Z,98572.44
2022-10-25T21:32:44.176Z,98574.22
2022-10-25T21:35:49.850Z,98576.09
2022-10-25T21:38:59.375Z,98583.41
2022-10-25T21:42:07.654Z,98579.84
2022-10-25T21:45:14.827Z,98574.44
2022-10-25T21:48:20.744Z,98571.78
2022-10-25T21:51:27.323Z,98564.91
2022-10-25T21:54:35.834Z,98571.97
2022-10-25T21:57:42.314Z,98573.06
2022-10-25T22:00:47.956Z,98576.66
2022-10-25T22:03:55.323Z,98567.97
2022-10-25T22:07:01.195Z,98583.94
2022-10-25T22:10:12.095Z,98577.09
2022-10-25T22:13:17.779Z,98580.63
2022-10-25T22:16:24.763Z,98584.13
2022-10-25T22:19:30.490Z,98577.34
2022-10-25T22:22:36.974Z,98581.09
2022-10-25T22:25:45.367Z,98575.81
2022-10-25T22:28:54.949Z,98574.13
2022-10-25T22:32:00.554Z,98586.34
2022-10-25T22:35:09.486Z,98579.22
2022-10-25T22:38:15.509Z,98575.50
2022-10-25T22:41:27.520Z,98578.69
2022-10-25T22:44:33.122Z,98583.00
2022-10-25T22:47:40.047Z,98587.97
2022-10-25T22:50:50.919Z,98583.41
2022-10-25T22:53:58.294Z,98586.13
2022-10-25T22:57:07.061Z,98589.69
2022-10-25T23:00:14.647Z,98587.50
2022-10-25T23:03:20.354Z,98591.41
2022-10-25T23:06:29.370Z,98603.75
2022-10-25T23:09:35.183Z,98597.34
2022-10-25T23:12:44.460Z,98603.78
2022-10-25T23:15:50.337Z,98604.22
2022-10-25T23:18:57.156Z,98604.66
2022-10-25T23:22:03.606Z,98614.94
2022-10-25T23:25:10.970Z,98606.63
2022-10-25T23:28:19.508Z,98604.19
2022-10-25T23:31:26.849Z,98612.06
2022-10-25T23:34:32.495Z,98606.91
2022-10-25T23:37:38.959Z,98609.69
2022-10-25T23:40:49.770Z,98605.44
2022-10-25T23:43:59.053Z,98607.31
2022-10-25T23:47:06.902Z,98608.50
2022-10-25T23:50:13.384Z,98611.38
2022-10-25T23:53:19.065Z,98612.38
2022-10-25T23:56:25.856Z,98613.41
2022-10-25T23:59:34.272Z,98625.75
